createdAt,value
2019-06-10T00:00:42.238Z,17.99
2019-06-10T00:01:41.682Z,17.91
2019-06-10T00:02:41.594Z,18.03
2019-06-10T00:03:42.249Z,17.95
2019-06-10T00:04:41.714Z,17.88
2019-06-10T00:05:41.828Z,17.95
2019-06-10T00:06:41.685Z,17.85
2019-06-10T00:07:41.556Z,17.95
2019-06-10T00:08:41.525Z,17.97
2019-06-10T00:09:41.514Z,17.97
2019-06-10T00:10:42.540Z,17.95
2019-06-10T00:11:42.931Z,17.95
2019-06-10T00:12:41.997Z,17.95
2019-06-10T00:13:41.618Z,17.94
2019-06-10T00:14:41.972Z,17.99
2019-06-10T00:15:41.561Z,17.92
2019-06-10T00:16:41.738Z,17.94
2019-06-10T00:17:53.230Z,17.89
2019-06-10T00:18:45.642Z,17.94
2019-06-10T00:19:41.396Z,18.03
2019-06-10T00:20:41.448Z,17.92
2019-06-10T00:21:41.447Z,17.92
2019-06-10T00:22:41.378Z,17.95
2019-06-10T00:23:41.438Z,18.06
2019-06-10T00:24:41.337Z,17.95
2019-06-10T00:25:41.964Z,17.99
2019-06-10T00:26:41.437Z,17.91
2019-06-10T00:27:42.029Z,17.97
2019-06-10T00:28:41.290Z,17.94
2019-06-10T00:29:41.281Z,17.85
2019-06-10T00:30:41.663Z,17.91
2019-06-10T00:31:41.815Z,17.85
2019-06-10T00:32:41.330Z,17.87
2019-06-10T00:33:41.496Z,17.89
2019-06-10T00:34:41.916Z,17.78
2019-06-10T00:35:41.559Z,17.87
2019-06-10T00:36:41.440Z,17.89
2019-06-10T00:37:41.851Z,17.89
2019-06-10T00:38:41.327Z,17.85
2019-06-10T00:39:41.163Z,17.79
2019-06-10T00:40:41.911Z,17.78
2019-06-10T00:41:42.784Z,17.81
2019-06-10T00:42:41.739Z,17.74
2019-06-10T00:43:41.277Z,17.91
2019-06-10T00:44:41.635Z,17.88
2019-06-10T00:45:41.477Z,17.81
2019-06-10T00:46:41.085Z,17.78
2019-06-10T00:47:41.467Z,17.73
2019-06-10T00:48:41.160Z,17.79
2019-06-10T00:49:41.087Z,17.82
2019-06-10T00:50:41.738Z,17.79
2019-06-10T00:51:41.437Z,17.78
2019-06-10T00:52:44.457Z,17.81
2019-06-10T00:53:42.263Z,17.78
2019-06-10T00:54:41.754Z,17.74
2019-06-10T00:55:41.837Z,17.74
2019-06-10T00:56:41.412Z,17.69
2019-06-10T00:57:41.843Z,17.74
2019-06-10T00:58:40.967Z,17.64
2019-06-10T00:59:41.372Z,17.66
2019-06-10T01:00:41.349Z,17.73
2019-06-10T01:01:41.637Z,17.55
2019-06-10T01:02:41.123Z,17.54
2019-06-10T01:03:41.494Z,17.50
2019-06-10T01:04:40.894Z,17.53
2019-06-10T01:05:42.025Z,17.62
2019-06-10T01:06:42.333Z,17.59
2019-06-10T01:07:41.395Z,17.46
2019-06-10T01:08:40.827Z,17.53
2019-06-10T01:09:41.292Z,17.46
2019-06-10T01:10:44.019Z,17.64
2019-06-10T01:11:41.174Z,17.53
2019-06-10T01:12:40.813Z,17.53
2019-06-10T01:13:41.412Z,17.41
2019-06-10T01:14:41.162Z,17.32
2019-06-10T01:15:41.800Z,17.50
2019-06-10T01:16:41.180Z,17.47
2019-06-10T01:17:41.692Z,17.44
2019-06-10T01:18:41.599Z,17.32
2019-06-10T01:19:41.545Z,17.47
2019-06-10T01:20:41.447Z,17.38
2019-06-10T01:21:41.548Z,17.36
2019-06-10T01:22:41.094Z,17.38
2019-06-10T01:23:41.628Z,17.33
2019-06-10T01:24:40.859Z,17.35
2019-06-10T01:25:42.300Z,17.38
2019-06-10T01:26:41.156Z,17.41
2019-06-10T01:27:41.006Z,17.43
2019-06-10T01:28:41.016Z,17.38
2019-06-10T01:29:41.633Z,17.29
2019-06-10T01:30:41.278Z,17.26
2019-06-10T01:31:41.963Z,17.26
2019-06-10T01:32:41.603Z,17.30
2019-06-10T01:33:41.119Z,17.35
2019-06-10T01:34:41.674Z,17.32
2019-06-10T01:35:41.506Z,17.38
2019-06-10T01:36:40.644Z,17.25
2019-06-10T01:37:41.360Z,17.35
2019-06-10T01:38:40.954Z,17.23
2019-06-10T01:39:41.269Z,17.22
2019-06-10T01:40:42.350Z,17.26
2019-06-10T01:41:40.960Z,17.23
2019-06-10T01:42:41.259Z,17.30
2019-06-10T01:43:40.823Z,17.23
2019-06-10T01:44:41.207Z,17.25
2019-06-10T01:45:41.840Z,17.32
2019-06-10T01:46:41.022Z,17.23
2019-06-10T01:47:41.684Z,17.29
2019-06-10T01:48:45.054Z,17.23
2019-06-10T01:49:41.395Z,17.17
2019-06-10T01:50:40.687Z,17.26
2019-06-10T01:51:41.162Z,17.14
2019-06-10T01:52:41.090Z,17.32
2019-06-10T01:53:41.504Z,17.28
2019-06-10T01:54:42.054Z,17.25
2019-06-10T01:55:41.775Z,17.29
2019-06-10T01:56:40.853Z,17.25
2019-06-10T01:57:41.279Z,17.22
2019-06-10T01:58:40.708Z,17.20
2019-06-10T01:59:41.317Z,17.17
2019-06-10T02:00:41.808Z,17.20
2019-06-10T02:01:41.338Z,17.17
2019-06-10T02:02:44.751Z,17.18
2019-06-10T02:03:41.487Z,17.15
2019-06-10T02:04:41.149Z,17.14
2019-06-10T02:05:41.943Z,17.13
2019-06-10T02:06:40.589Z,17.20
2019-06-10T02:07:41.006Z,17.15
2019-06-10T02:08:41.795Z,17.18
2019-06-10T02:09:41.102Z,17.14
2019-06-10T02:10:41.556Z,17.18
2019-06-10T02:11:41.394Z,17.18
2019-06-10T02:12:41.548Z,17.13
2019-06-10T02:13:40.958Z,17.11
2019-06-10T02:14:41.642Z,17.14
2019-06-10T02:15:41.047Z,17.11
2019-06-10T02:16:41.436Z,17.07
2019-06-10T02:17:41.718Z,17.20
2019-06-10T02:18:42.233Z,17.11
2019-06-10T02:19:41.412Z,17.10
2019-06-10T02:20:41.239Z,17.18
2019-06-10T02:21:41.707Z,17.08
2019-06-10T02:22:41.085Z,17.10
2019-06-10T02:23:41.182Z,17.11
2019-06-10T02:24:41.660Z,17.11
2019-06-10T02:25:41.243Z,17.07
2019-06-10T02:26:41.070Z,17.07
2019-06-10T02:27:41.554Z,17.03
2019-06-10T02:28:40.658Z,17.03
2019-06-10T02:29:41.227Z,17.11
2019-06-10T02:30:49.867Z,17.04
2019-06-10T02:31:43.173Z,16.95
2019-06-10T02:32:42.588Z,17.03
2019-06-10T02:33:42.006Z,16.93
2019-06-10T02:34:59.904Z,16.92
2019-06-10T02:35:47.954Z,16.98
2019-06-10T02:36:44.258Z,16.92
2019-06-10T02:37:39.786Z,16.99
2019-06-10T02:38:39.948Z,16.75
2019-06-10T02:39:39.764Z,16.83
2019-06-10T02:40:42.995Z,16.90
2019-06-10T02:41:39.898Z,16.86
2019-06-10T02:42:43.371Z,16.88
2019-06-10T02:43:39.719Z,16.80
2019-06-10T02:44:39.710Z,16.75
2019-06-10T02:45:39.693Z,16.70
2019-06-10T02:46:43.587Z,16.71
2019-06-10T02:47:39.672Z,16.65
2019-06-10T02:48:39.655Z,16.65
2019-06-10T02:49:55.674Z,16.63
2019-06-10T02:50:43.864Z,16.63
2019-06-10T02:51:39.687Z,16.59
2019-06-10T02:52:39.629Z,16.59
2019-06-10T02:53:43.065Z,16.58
2019-06-10T02:54:39.590Z,16.50
2019-06-10T02:55:43.205Z,16.49
2019-06-10T02:56:39.564Z,16.45
2019-06-10T02:57:40.507Z,16.45
2019-06-10T02:58:40.288Z,16.49
2019-06-10T02:59:39.530Z,16.53
2019-06-10T03:00:44.566Z,16.45
2019-06-10T03:01:43.745Z,16.49
2019-06-10T03:02:39.509Z,16.44
2019-06-10T03:03:45.835Z,16.50
2019-06-10T03:04:43.108Z,16.52
2019-06-10T03:05:41.048Z,16.50
2019-06-10T03:06:40.642Z,16.50
2019-06-10T03:07:43.998Z,16.53
2019-06-10T03:08:39.420Z,16.63
2019-06-10T03:09:42.568Z,16.53
2019-06-10T03:10:39.399Z,16.50
2019-06-10T03:11:39.476Z,16.49
2019-06-10T03:12:39.373Z,16.50
2019-06-10T03:13:39.380Z,16.60
2019-06-10T03:14:39.350Z,16.49
2019-06-10T03:15:39.335Z,16.56
2019-06-10T03:16:39.325Z,16.60
2019-06-10T03:17:39.311Z,16.53
2019-06-10T03:18:39.323Z,16.53
2019-06-10T03:19:47.844Z,16.49
2019-06-10T03:20:42.540Z,16.52
2019-06-10T03:21:39.266Z,16.44
2019-06-10T03:22:39.253Z,16.50
2019-06-10T03:23:39.242Z,16.38
2019-06-10T03:24:39.250Z,16.48
2019-06-10T03:25:39.219Z,16.52
2019-06-10T03:26:39.207Z,16.55
2019-06-10T03:27:39.195Z,16.60
2019-06-10T03:28:39.183Z,16.59
2019-06-10T03:29:39.194Z,16.56
2019-06-10T03:30:49.691Z,16.56
2019-06-10T03:31:43.101Z,16.58
2019-06-10T03:32:42.800Z,16.70
2019-06-10T03:33:43.046Z,16.67
2019-06-10T03:34:45.987Z,16.71
2019-06-10T03:35:42.374Z,16.73
2019-06-10T03:36:39.088Z,16.63
2019-06-10T03:37:39.078Z,16.63
2019-06-10T03:38:39.118Z,16.60
2019-06-10T03:39:39.053Z,16.60
2019-06-10T03:40:39.059Z,16.62
2019-06-10T03:41:39.027Z,16.67
2019-06-10T03:42:39.017Z,16.62
2019-06-10T03:43:39.005Z,16.62
2019-06-10T03:44:38.994Z,16.55
2019-06-10T03:45:39.002Z,16.68
2019-06-10T03:46:38.969Z,16.58
2019-06-10T03:47:38.984Z,16.62
2019-06-10T03:48:38.944Z,16.59
2019-06-10T03:49:49.899Z,16.56
2019-06-10T03:50:39.944Z,16.59
2019-06-10T03:51:38.932Z,16.65
2019-06-10T03:52:38.898Z,16.67
2019-06-10T03:53:38.886Z,16.63
2019-06-10T03:54:38.892Z,16.67
2019-06-10T03:55:38.863Z,16.73
2019-06-10T03:56:38.850Z,16.73
2019-06-10T03:57:38.837Z,16.74
2019-06-10T03:58:38.826Z,16.73
2019-06-10T03:59:38.843Z,16.59
2019-06-10T04:00:38.801Z,16.65
2019-06-10T04:01:38.793Z,16.60
2019-06-10T04:02:38.780Z,16.68
2019-06-10T04:03:38.766Z,16.63
2019-06-10T04:04:38.756Z,16.65
2019-06-10T04:05:38.763Z,16.65
2019-06-10T04:06:38.749Z,16.63
2019-06-10T04:07:38.722Z,16.62
2019-06-10T04:08:38.708Z,16.60
2019-06-10T04:09:38.717Z,16.68
2019-06-10T04:10:38.682Z,16.63
2019-06-10T04:11:38.759Z,16.63
2019-06-10T04:12:38.660Z,16.68
2019-06-10T04:13:38.649Z,16.62
2019-06-10T04:14:38.637Z,16.60
2019-06-10T04:15:38.642Z,16.58
2019-06-10T04:16:38.614Z,16.53
2019-06-10T04:17:38.605Z,16.63
2019-06-10T04:18:38.589Z,16.56
2019-06-10T04:19:38.575Z,16.67
2019-06-10T04:20:38.585Z,16.74
2019-06-10T04:21:38.588Z,16.63
2019-06-10T04:22:38.540Z,16.65
2019-06-10T04:23:38.534Z,16.67
2019-06-10T04:24:38.520Z,16.62
2019-06-10T04:25:38.547Z,16.71
2019-06-10T04:26:38.499Z,16.58
2019-06-10T04:27:38.485Z,16.68
2019-06-10T04:28:38.472Z,16.68
2019-06-10T04:29:38.458Z,16.71
2019-06-10T04:30:38.449Z,16.73
2019-06-10T04:31:38.458Z,16.63
2019-06-10T04:32:38.422Z,16.74
2019-06-10T04:33:38.412Z,16.75
2019-06-10T04:34:38.399Z,16.92
2019-06-10T04:35:38.386Z,16.85
2019-06-10T04:36:38.393Z,16.81
2019-06-10T04:37:38.362Z,16.88
2019-06-10T04:38:38.350Z,16.88
2019-06-10T04:39:38.341Z,16.81
2019-06-10T04:40:38.329Z,16.96
2019-06-10T04:41:38.349Z,16.88
2019-06-10T04:42:38.305Z,16.90
2019-06-10T04:43:38.293Z,16.99
2019-06-10T04:44:38.279Z,16.83
2019-06-10T04:45:38.268Z,17.04
2019-06-10T04:46:38.291Z,16.93
2019-06-10T04:47:38.245Z,16.89
2019-06-10T04:48:38.231Z,16.93
2019-06-10T04:49:38.221Z,16.99
2019-06-10T04:50:45.476Z,17.03
2019-06-10T04:51:39.215Z,17.03
2019-06-10T04:52:38.184Z,16.98
2019-06-10T04:53:40.327Z,17.03
2019-06-10T04:54:38.162Z,17.10
2019-06-10T04:55:38.150Z,17.10
2019-06-10T04:56:38.158Z,17.10
2019-06-10T04:57:38.125Z,17.14
2019-06-10T04:58:38.114Z,17.26
2019-06-10T04:59:38.101Z,17.28
2019-06-10T05:00:38.093Z,17.33
2019-06-10T05:01:38.213Z,17.26
2019-06-10T05:02:38.086Z,17.33
2019-06-10T05:03:38.058Z,17.26
2019-06-10T05:04:38.045Z,17.38
2019-06-10T05:05:38.033Z,17.41
2019-06-10T05:06:38.045Z,17.38
2019-06-10T05:07:38.011Z,17.32
2019-06-10T05:08:38.000Z,17.43
2019-06-10T05:09:37.987Z,17.47
2019-06-10T05:10:37.976Z,17.41
2019-06-10T05:11:38.077Z,17.41
2019-06-10T05:12:37.971Z,17.36
2019-06-10T05:13:37.940Z,17.41
2019-06-10T05:14:37.929Z,17.43
2019-06-10T05:15:37.921Z,17.46
2019-06-10T05:16:37.918Z,17.44
2019-06-10T05:17:37.913Z,17.50
2019-06-10T05:18:37.881Z,17.44
2019-06-10T05:19:37.869Z,17.43
2019-06-10T05:20:54.096Z,17.48
2019-06-10T05:21:38.846Z,17.33
2019-06-10T05:22:37.852Z,17.40
2019-06-10T05:23:37.825Z,17.35
2019-06-10T05:24:37.812Z,17.40
2019-06-10T05:25:37.802Z,17.33
2019-06-10T05:26:37.788Z,17.46
2019-06-10T05:27:37.798Z,17.30
2019-06-10T05:28:37.765Z,17.47
2019-06-10T05:29:37.767Z,17.40
2019-06-10T05:30:37.771Z,17.55
2019-06-10T05:31:37.791Z,17.48
2019-06-10T05:32:37.744Z,17.44
2019-06-10T05:33:37.706Z,17.53
2019-06-10T05:34:37.693Z,17.46
2019-06-10T05:35:37.699Z,17.50
2019-06-10T05:36:37.676Z,17.54
2019-06-10T05:37:37.661Z,17.53
2019-06-10T05:38:37.669Z,17.53
2019-06-10T05:39:37.638Z,17.48
2019-06-10T05:40:37.624Z,17.51
2019-06-10T05:41:37.666Z,17.47
2019-06-10T05:42:37.600Z,17.53
2019-06-10T05:43:37.606Z,17.66
2019-06-10T05:44:37.577Z,17.50
2019-06-10T05:45:37.564Z,17.48
2019-06-10T05:46:37.554Z,17.66
2019-06-10T05:47:37.540Z,17.69
2019-06-10T05:48:37.553Z,17.63
2019-06-10T05:49:37.517Z,17.67
2019-06-10T05:50:37.507Z,17.67
2019-06-10T05:51:37.493Z,17.76
2019-06-10T05:52:37.484Z,17.78
2019-06-10T05:53:37.490Z,17.87
2019-06-10T05:54:37.459Z,17.87
2019-06-10T05:55:37.447Z,18.04
2019-06-10T05:56:37.436Z,17.95
2019-06-10T05:57:37.423Z,18.04
2019-06-10T05:58:37.410Z,18.15
2019-06-10T05:59:37.418Z,18.12
2019-06-10T06:00:37.386Z,18.10
2019-06-10T06:01:38.626Z,18.27
2019-06-10T06:02:37.363Z,18.27
2019-06-10T06:03:37.396Z,18.29
2019-06-10T06:04:37.338Z,18.27
2019-06-10T06:05:38.094Z,18.40
2019-06-10T06:06:37.533Z,18.36
2019-06-10T06:07:37.583Z,18.42
2019-06-10T06:08:37.538Z,18.42
2019-06-10T06:09:37.772Z,18.46
2019-06-10T06:10:37.839Z,18.49
2019-06-10T06:11:37.803Z,18.55
2019-06-10T06:12:37.845Z,18.46
2019-06-10T06:13:38.045Z,18.49
2019-06-10T06:14:37.795Z,18.49
2019-06-10T06:15:38.071Z,18.58
2019-06-10T06:16:38.306Z,18.62
2019-06-10T06:17:38.534Z,18.61
2019-06-10T06:18:38.330Z,18.62
2019-06-10T06:19:38.825Z,18.74
2019-06-10T06:20:37.610Z,18.64
2019-06-10T06:21:42.948Z,18.73
2019-06-10T06:22:38.131Z,18.73
2019-06-10T06:23:38.265Z,18.74
2019-06-10T06:24:37.984Z,18.77
2019-06-10T06:25:42.238Z,18.80
2019-06-10T06:26:39.680Z,18.87
2019-06-10T06:27:38.238Z,18.94
2019-06-10T06:28:38.268Z,18.92
2019-06-10T06:29:38.305Z,19.02
2019-06-10T06:30:37.641Z,19.10
2019-06-10T06:31:37.708Z,19.10
2019-06-10T06:32:38.189Z,19.18
2019-06-10T06:33:39.727Z,19.28
2019-06-10T06:34:38.651Z,19.32
2019-06-10T06:35:42.736Z,19.31
2019-06-10T06:36:38.390Z,19.42
2019-06-10T06:37:39.140Z,19.47
2019-06-10T06:38:38.392Z,19.43
2019-06-10T06:39:38.213Z,19.47
2019-06-10T06:40:37.574Z,19.54
2019-06-10T06:41:38.645Z,19.60
2019-06-10T06:42:38.232Z,19.55
2019-06-10T06:43:41.567Z,19.61
2019-06-10T06:44:39.426Z,19.68
2019-06-10T06:45:37.778Z,19.58
2019-06-10T06:46:39.323Z,19.54
2019-06-10T06:47:37.740Z,19.63
2019-06-10T06:48:39.089Z,19.73
2019-06-10T06:49:37.143Z,19.75
2019-06-10T06:50:46.260Z,19.70
2019-06-10T06:51:49.471Z,19.79
2019-06-10T06:53:12.520Z,19.76
2019-06-10T06:53:45.430Z,19.75
2019-06-10T06:54:39.334Z,19.68
2019-06-10T06:55:38.087Z,19.72
2019-06-10T06:56:38.882Z,19.60
2019-06-10T06:57:37.323Z,19.72
2019-06-10T06:58:37.344Z,19.87
2019-06-10T06:59:38.465Z,19.91
2019-06-10T07:00:53.185Z,19.93
2019-06-10T07:01:39.588Z,19.97
2019-06-10T07:02:37.568Z,19.91
2019-06-10T07:03:38.609Z,19.91
2019-06-10T07:04:37.469Z,19.90
2019-06-10T07:05:37.548Z,20.02
2019-06-10T07:06:37.427Z,19.93
2019-06-10T07:07:37.417Z,20.10
2019-06-10T07:08:38.094Z,20.13
2019-06-10T07:09:37.418Z,20.25
2019-06-10T07:10:37.365Z,20.33
2019-06-10T07:11:38.532Z,20.41
2019-06-10T07:12:37.862Z,20.41
2019-06-10T07:13:39.126Z,20.39
2019-06-10T07:14:38.629Z,20.43
2019-06-10T07:15:38.870Z,20.53
2019-06-10T07:16:38.986Z,20.56
2019-06-10T07:17:37.930Z,20.61
2019-06-10T07:18:41.644Z,20.59
2019-06-10T07:19:39.530Z,20.61
2019-06-10T07:20:38.245Z,20.54
2019-06-10T07:21:56.936Z,20.66
2019-06-10T07:22:40.061Z,20.69
2019-06-10T07:23:39.501Z,20.71
2019-06-10T07:24:39.274Z,20.76
2019-06-10T07:25:38.663Z,20.80
2019-06-10T07:26:42.326Z,20.86
2019-06-10T07:27:39.864Z,20.95
2019-06-10T07:28:38.418Z,20.89
2019-06-10T07:29:38.583Z,20.91
2019-06-10T07:30:39.474Z,21.06
2019-06-10T07:31:38.451Z,21.05
2019-06-10T07:32:38.753Z,21.19
2019-06-10T07:33:39.256Z,21.19
2019-06-10T07:34:37.086Z,21.09
2019-06-10T07:35:37.272Z,21.20
2019-06-10T07:36:37.126Z,21.19
2019-06-10T07:37:37.873Z,21.21
2019-06-10T07:38:39.308Z,21.23
2019-06-10T07:39:36.874Z,21.17
2019-06-10T07:40:37.445Z,21.11
2019-06-10T07:41:37.528Z,21.16
2019-06-10T07:42:37.423Z,21.06
2019-06-10T07:43:40.850Z,21.13
2019-06-10T07:44:37.561Z,21.14
2019-06-10T07:45:38.984Z,21.06
2019-06-10T07:46:36.676Z,21.11
2019-06-10T07:47:36.987Z,21.09
2019-06-10T07:48:37.208Z,21.06
2019-06-10T07:49:37.191Z,21.06
2019-06-10T07:50:37.474Z,21.16
2019-06-10T07:51:37.368Z,21.20
2019-06-10T07:52:37.323Z,21.26
2019-06-10T07:53:37.000Z,21.23
2019-06-10T07:54:37.491Z,21.26
2019-06-10T07:55:36.641Z,21.30
2019-06-10T07:56:40.336Z,21.50
2019-06-10T07:57:37.499Z,21.64
2019-06-10T07:58:37.182Z,21.71
2019-06-10T07:59:35.997Z,22.01
2019-06-10T08:00:36.885Z,22.20
2019-06-10T08:01:37.395Z,22.53
2019-06-10T08:02:37.611Z,22.65
2019-06-10T08:03:36.920Z,22.87
2019-06-10T08:04:36.532Z,23.65
2019-06-10T08:05:36.067Z,24.12
2019-06-10T08:06:36.402Z,24.26
2019-06-10T08:07:36.730Z,24.53
2019-06-10T08:08:36.821Z,24.91
2019-06-10T08:09:37.316Z,25.07
2019-06-10T08:10:36.986Z,25.53
2019-06-10T08:11:37.105Z,25.83
2019-06-10T08:12:37.064Z,25.97
2019-06-10T08:13:37.018Z,26.15
2019-06-10T08:14:35.845Z,26.28
2019-06-10T08:15:35.811Z,26.44
2019-06-10T08:16:35.802Z,26.57
2019-06-10T08:17:35.790Z,26.79
2019-06-10T08:18:44.658Z,26.74
2019-06-10T08:19:40.339Z,26.80
2019-06-10T08:20:37.026Z,26.91
2019-06-10T08:21:37.117Z,27.14
2019-06-10T08:22:41.944Z,27.62
2019-06-10T08:23:37.466Z,27.92
2019-06-10T08:24:35.729Z,28.44
2019-06-10T08:25:36.826Z,28.73
2019-06-10T08:26:35.689Z,28.54
2019-06-10T08:27:36.567Z,28.46
2019-06-10T08:28:35.667Z,28.48
2019-06-10T08:29:36.681Z,28.66
2019-06-10T08:30:35.681Z,28.60
2019-06-10T08:31:36.672Z,28.69
2019-06-10T08:32:36.029Z,28.69
2019-06-10T08:33:36.898Z,29.04
2019-06-10T08:34:35.926Z,29.18
2019-06-10T08:35:44.047Z,29.23
2019-06-10T08:36:36.579Z,29.08
2019-06-10T08:37:36.078Z,29.06
2019-06-10T08:38:36.290Z,29.19
2019-06-10T08:39:36.201Z,29.03
2019-06-10T08:40:36.310Z,29.08
2019-06-10T08:41:36.307Z,29.06
2019-06-10T08:42:36.559Z,29.16
2019-06-10T08:43:36.447Z,29.16
2019-06-10T08:44:36.607Z,29.07
2019-06-10T08:45:36.791Z,29.33
2019-06-10T08:46:36.776Z,29.29
2019-06-10T08:47:35.456Z,29.37
2019-06-10T08:48:35.444Z,29.10
2019-06-10T08:49:35.435Z,28.88
2019-06-10T08:50:35.474Z,28.60
2019-06-10T08:51:35.412Z,28.56
2019-06-10T08:52:51.657Z,28.19
2019-06-10T08:53:37.377Z,28.04
2019-06-10T08:54:35.379Z,28.31
2019-06-10T08:55:35.384Z,28.56
2019-06-10T08:56:35.355Z,28.93
2019-06-10T08:57:35.345Z,29.57
2019-06-10T08:58:35.335Z,30.45
2019-06-10T08:59:35.327Z,31.24
2019-06-10T09:00:35.331Z,31.92
2019-06-10T09:01:35.305Z,32.66
2019-06-10T09:02:35.289Z,33.36
2019-06-10T09:03:35.282Z,34.14
2019-06-10T09:04:35.271Z,34.76
2019-06-10T09:05:35.287Z,35.30
2019-06-10T09:06:35.250Z,36.01
2019-06-10T09:07:35.240Z,36.41
2019-06-10T09:08:35.232Z,36.77
2019-06-10T09:09:35.225Z,37.01
2019-06-10T09:10:35.215Z,37.05
2019-06-10T09:11:35.221Z,37.47
2019-06-10T09:12:36.738Z,37.66
2019-06-10T09:13:35.184Z,37.90
2019-06-10T09:14:35.176Z,37.96
2019-06-10T09:15:35.165Z,37.61
2019-06-10T09:16:35.180Z,37.38
2019-06-10T09:17:35.150Z,37.33
2019-06-10T09:18:35.142Z,36.85
2019-06-10T09:19:35.133Z,36.33
2019-06-10T09:20:35.117Z,35.58
2019-06-10T09:21:35.108Z,35.15
2019-06-10T09:22:35.119Z,34.83
2019-06-10T09:23:35.090Z,34.22
2019-06-10T09:24:35.078Z,33.90
2019-06-10T09:25:35.069Z,33.57
2019-06-10T09:26:35.057Z,33.31
2019-06-10T09:27:35.068Z,33.27
2019-06-10T09:28:35.038Z,33.11
2019-06-10T09:29:35.029Z,32.84
2019-06-10T09:30:35.019Z,32.62
2019-06-10T09:31:35.010Z,32.74
2019-06-10T09:32:35.015Z,32.77
2019-06-10T09:33:34.985Z,32.67
2019-06-10T09:34:34.976Z,32.89
2019-06-10T09:35:34.965Z,32.98
2019-06-10T09:36:34.956Z,33.20
2019-06-10T09:37:34.966Z,33.51
2019-06-10T09:38:34.937Z,33.95
2019-06-10T09:39:34.923Z,34.27
2019-06-10T09:40:34.913Z,34.61
2019-06-10T09:41:41.053Z,35.03
2019-06-10T09:42:35.918Z,35.29
2019-06-10T09:43:34.882Z,35.62
2019-06-10T09:44:34.872Z,35.50
2019-06-10T09:45:35.119Z,35.72
2019-06-10T09:46:34.854Z,35.93
2019-06-10T09:47:34.936Z,35.93
2019-06-10T09:48:34.850Z,36.11
2019-06-10T09:49:34.826Z,36.06
2019-06-10T09:50:34.813Z,35.72
2019-06-10T09:51:34.807Z,35.44
2019-06-10T09:52:34.793Z,35.52
2019-06-10T09:53:42.313Z,35.64
2019-06-10T09:54:35.772Z,35.69
2019-06-10T09:55:34.764Z,35.67
2019-06-10T09:56:34.756Z,35.88
2019-06-10T09:57:34.745Z,36.30
2019-06-10T09:58:34.752Z,36.11
2019-06-10T09:59:34.726Z,36.31
2019-06-10T10:00:34.720Z,36.19
2019-06-10T10:01:34.710Z,36.26
2019-06-10T10:02:34.698Z,36.35
2019-06-10T10:03:34.712Z,36.43
2019-06-10T10:04:37.410Z,36.45
2019-06-10T10:05:34.668Z,36.11
2019-06-10T10:06:34.661Z,35.74
2019-06-10T10:07:34.651Z,35.97
2019-06-10T10:08:34.652Z,36.24
2019-06-10T10:09:37.116Z,36.49
2019-06-10T10:10:34.619Z,36.73
2019-06-10T10:11:34.610Z,36.83
2019-06-10T10:12:34.604Z,37.05
2019-06-10T10:13:35.533Z,37.41
2019-06-10T10:14:34.607Z,37.80
2019-06-10T10:15:34.745Z,37.39
2019-06-10T10:16:34.564Z,36.27
2019-06-10T10:17:35.028Z,35.17
2019-06-10T10:18:34.546Z,34.57
2019-06-10T10:19:34.538Z,34.17
2019-06-10T10:20:34.544Z,33.89
2019-06-10T10:21:34.925Z,33.64
2019-06-10T10:22:34.506Z,33.13
2019-06-10T10:23:50.382Z,32.77
2019-06-10T10:24:35.481Z,32.25
2019-06-10T10:25:34.493Z,32.25
2019-06-10T10:26:34.463Z,32.43
2019-06-10T10:27:34.453Z,32.29
2019-06-10T10:28:34.442Z,32.25
2019-06-10T10:29:34.430Z,32.55
2019-06-10T10:30:34.452Z,32.71
2019-06-10T10:31:34.416Z,32.99
2019-06-10T10:32:34.401Z,33.37
2019-06-10T10:33:34.420Z,33.58
2019-06-10T10:34:34.380Z,33.87
2019-06-10T10:35:34.370Z,34.22
2019-06-10T10:36:34.380Z,34.14
2019-06-10T10:37:34.353Z,34.05
2019-06-10T10:38:34.894Z,33.87
2019-06-10T10:39:34.331Z,33.45
2019-06-10T10:40:34.349Z,33.26
2019-06-10T10:41:34.330Z,33.04
2019-06-10T10:42:44.930Z,33.17
2019-06-10T10:43:37.727Z,33.46
2019-06-10T10:44:34.283Z,33.65
2019-06-10T10:45:34.269Z,33.76
2019-06-10T10:46:34.278Z,34.02
2019-06-10T10:47:34.253Z,34.29
2019-06-10T10:48:34.322Z,34.50
2019-06-10T10:49:34.231Z,34.66
2019-06-10T10:50:34.316Z,34.83
2019-06-10T10:51:34.769Z,34.79
2019-06-10T10:52:34.203Z,34.60
2019-06-10T10:53:34.191Z,34.39
2019-06-10T10:54:36.767Z,34.64
2019-06-10T10:55:34.170Z,34.76
2019-06-10T10:56:34.201Z,34.98
2019-06-10T10:57:34.152Z,35.17
2019-06-10T10:58:34.141Z,35.39
2019-06-10T10:59:34.135Z,35.21
2019-06-10T11:00:37.512Z,34.83
2019-06-10T11:01:34.210Z,34.45
2019-06-10T11:02:34.128Z,33.85
2019-06-10T11:03:34.101Z,32.85
2019-06-10T11:04:34.081Z,32.17
2019-06-10T11:05:34.073Z,32.03
2019-06-10T11:06:34.062Z,31.55
2019-06-10T11:07:34.118Z,31.73
2019-06-10T11:08:34.065Z,31.84
2019-06-10T11:09:34.029Z,32.36
2019-06-10T11:10:34.024Z,32.57
2019-06-10T11:11:34.017Z,33.03
2019-06-10T11:12:34.019Z,33.34
2019-06-10T11:13:33.992Z,33.27
2019-06-10T11:14:34.237Z,33.34
2019-06-10T11:15:34.031Z,33.49
2019-06-10T11:16:33.959Z,33.52
2019-06-10T11:17:33.980Z,33.82
2019-06-10T11:18:34.163Z,33.98
2019-06-10T11:19:33.928Z,34.11
2019-06-10T11:20:33.918Z,33.78
2019-06-10T11:21:33.911Z,33.90
2019-06-10T11:22:33.898Z,33.49
2019-06-10T11:23:34.702Z,33.31
2019-06-10T11:24:40.909Z,33.08
2019-06-10T11:25:34.868Z,32.81
2019-06-10T11:26:33.857Z,32.93
2019-06-10T11:27:33.846Z,33.20
2019-06-10T11:28:33.857Z,33.34
2019-06-10T11:29:33.827Z,33.29
2019-06-10T11:30:33.816Z,33.34
2019-06-10T11:31:33.806Z,33.68
2019-06-10T11:32:33.797Z,33.68
2019-06-10T11:33:34.056Z,33.89
2019-06-10T11:34:33.809Z,33.90
2019-06-10T11:35:33.770Z,33.92
2019-06-10T11:36:33.760Z,34.00
2019-06-10T11:37:33.749Z,33.98
2019-06-10T11:38:33.764Z,33.86
2019-06-10T11:39:37.848Z,33.73
2019-06-10T11:40:34.082Z,33.64
2019-06-10T11:41:33.710Z,33.49
2019-06-10T11:42:33.698Z,33.46
2019-06-10T11:43:33.732Z,33.14
2019-06-10T11:44:34.003Z,32.66
2019-06-10T11:45:33.666Z,32.00
2019-06-10T11:46:33.665Z,31.60
2019-06-10T11:47:33.643Z,31.64
2019-06-10T11:48:33.651Z,31.77
2019-06-10T11:49:33.622Z,31.77
2019-06-10T11:50:33.614Z,31.75
2019-06-10T11:51:33.601Z,31.87
2019-06-10T11:52:33.695Z,31.99
2019-06-10T11:53:34.433Z,31.84
2019-06-10T11:54:47.879Z,31.68
2019-06-10T11:55:34.558Z,31.45
2019-06-10T11:56:33.773Z,31.09
2019-06-10T11:57:33.543Z,30.87
2019-06-10T11:58:33.549Z,30.61
2019-06-10T11:59:33.557Z,30.36
2019-06-10T12:00:33.510Z,30.12
2019-06-10T12:01:33.521Z,29.84
2019-06-10T12:02:33.485Z,29.63
2019-06-10T12:03:33.494Z,29.56
2019-06-10T12:04:33.465Z,29.31
2019-06-10T12:05:33.453Z,29.20
2019-06-10T12:06:34.144Z,29.16
2019-06-10T12:07:33.433Z,29.35
2019-06-10T12:08:33.439Z,29.43
2019-06-10T12:09:33.557Z,29.41
2019-06-10T12:10:34.074Z,29.57
2019-06-10T12:11:34.361Z,29.59
2019-06-10T12:12:33.793Z,29.75
2019-06-10T12:13:34.655Z,29.93
2019-06-10T12:14:33.960Z,29.97
2019-06-10T12:16:12.717Z,29.92
2019-06-10T12:17:45.617Z,30.08
2019-06-10T12:18:34.331Z,30.27
2019-06-10T12:19:34.086Z,30.34
2019-06-10T12:20:33.537Z,30.45
2019-06-10T12:21:33.918Z,30.54
2019-06-10T12:22:33.734Z,30.68
2019-06-10T12:23:33.826Z,30.57
2019-06-10T12:24:34.123Z,30.45
2019-06-10T12:25:39.386Z,30.47
2019-06-10T12:26:34.220Z,30.61
2019-06-10T12:27:33.219Z,30.72
2019-06-10T12:28:33.199Z,30.72
2019-06-10T12:29:33.209Z,30.75
2019-06-10T12:30:34.439Z,30.59
2019-06-10T12:31:34.537Z,30.61
2019-06-10T12:32:33.722Z,30.57
2019-06-10T12:33:33.791Z,30.61
2019-06-10T12:34:33.498Z,30.57
2019-06-10T12:35:33.439Z,30.43
2019-06-10T12:36:33.114Z,30.31
2019-06-10T12:37:33.837Z,30.12
2019-06-10T12:38:33.612Z,30.21
2019-06-10T12:39:33.099Z,30.12
2019-06-10T12:40:33.071Z,30.31
2019-06-10T12:41:33.317Z,30.24
2019-06-10T12:42:33.061Z,30.43
2019-06-10T12:43:33.036Z,30.33
2019-06-10T12:44:33.706Z,30.49
2019-06-10T12:45:33.014Z,30.50
2019-06-10T12:46:33.009Z,30.38
2019-06-10T12:47:33.316Z,30.45
2019-06-10T12:48:34.302Z,30.45
2019-06-10T12:49:32.973Z,30.34
2019-06-10T12:50:32.977Z,30.31
2019-06-10T12:51:32.950Z,30.15
2019-06-10T12:52:32.937Z,30.12
2019-06-10T12:53:33.605Z,30.08